createdAt,value
2023-03-28T00:01:43.188Z,81.69
2023-03-28T00:04:17.555Z,81.76
2023-03-28T00:06:52.173Z,81.73
2023-03-28T00:09:26.275Z,81.67
2023-03-28T00:11:59.793Z,81.61
2023-03-28T00:14:35.052Z,81.59
2023-03-28T00:17:08.535Z,81.66
2023-03-28T00:19:42.126Z,81.66
2023-03-28T00:22:16.178Z,81.71
2023-03-28T00:24:50.876Z,81.73
2023-03-28T00:27:24.302Z,81.73
2023-03-28T00:29:57.677Z,81.74
2023-03-28T00:32:31.282Z,81.76
2023-03-28T00:35:05.122Z,81.73
2023-03-28T00:37:38.534Z,81.71
2023-03-28T00:40:14.588Z,81.71
2023-03-28T00:42:48.052Z,81.71
2023-03-28T00:45:22.869Z,81.77
2023-03-28T00:48:00.486Z,81.79
2023-03-28T00:50:36.874Z,81.77
2023-03-28T00:53:13.881Z,81.78
2023-03-28T00:55:49.624Z,81.84
2023-03-28T00:58:26.861Z,81.92
2023-03-28T01:01:00.582Z,81.95
2023-03-28T01:03:37.764Z,81.98
2023-03-28T01:06:12.792Z,82.02
2023-03-28T01:08:47.974Z,82.01
2023-03-28T01:11:22.189Z,82.00
2023-03-28T01:13:56.752Z,81.98
2023-03-28T01:16:32.636Z,82.01
2023-03-28T01:19:10.678Z,82.00
2023-03-28T01:22:11.061Z,81.93
2023-03-28T01:25:14.559Z,81.75
2023-03-28T01:27:52.315Z,81.65
2023-03-28T01:30:47.287Z,81.64
2023-03-28T01:33:54.543Z,81.57
2023-03-28T01:37:05.747Z,81.51
2023-03-28T01:39:51.840Z,81.51
2023-03-28T01:42:30.037Z,81.51
2023-03-28T01:45:08.449Z,81.48
2023-03-28T01:47:45.308Z,81.30
2023-03-28T01:50:21.813Z,81.15
2023-03-28T01:53:00.046Z,81.01
2023-03-28T01:55:41.533Z,80.99
2023-03-28T01:58:16.115Z,80.99
2023-03-28T02:00:54.652Z,80.96
2023-03-28T02:03:31.925Z,80.99
2023-03-28T02:06:10.330Z,80.95
2023-03-28T02:08:47.692Z,80.96
2023-03-28T02:11:30.230Z,81.03
2023-03-28T02:14:24.241Z,81.12
2023-03-28T02:17:05.552Z,81.02
2023-03-28T02:19:45.577Z,80.90
2023-03-28T02:22:36.849Z,80.72
2023-03-28T02:25:18.648Z,80.63
2023-03-28T02:27:59.332Z,80.57
2023-03-28T02:30:51.866Z,80.65
2023-03-28T02:33:38.120Z,80.74
2023-03-28T02:36:20.096Z,80.88
2023-03-28T02:38:59.619Z,80.84
2023-03-28T02:41:37.545Z,80.79
2023-03-28T02:44:20.929Z,80.67
2023-03-28T02:47:01.081Z,80.61
2023-03-28T02:49:50.869Z,80.60
2023-03-28T02:52:30.930Z,80.62
2023-03-28T02:55:08.414Z,80.68
2023-03-28T02:57:49.234Z,80.70
2023-03-28T03:00:23.535Z,80.74
2023-03-28T03:02:58.447Z,80.88
2023-03-28T03:05:31.948Z,81.04
2023-03-28T03:08:06.502Z,81.18
2023-03-28T03:10:41.334Z,81.37
2023-03-28T03:13:16.879Z,81.57
2023-03-28T03:15:50.962Z,81.73
2023-03-28T03:18:26.505Z,81.86
2023-03-28T03:21:02.021Z,81.99
2023-03-28T03:23:36.648Z,82.09
2023-03-28T03:26:11.367Z,82.11
2023-03-28T03:28:46.546Z,82.12
2023-03-28T03:31:21.665Z,82.12
2023-03-28T03:36:55.413Z,81.99
2023-03-28T03:39:28.872Z,81.93
2023-03-28T03:42:02.462Z,81.94
2023-03-28T03:44:37.843Z,81.94
2023-03-28T03:47:11.782Z,81.90
2023-03-28T03:49:44.993Z,81.93
2023-03-28T03:52:18.549Z,81.96
2023-03-28T03:54:51.822Z,82.00
2023-03-28T03:57:25.786Z,82.07
2023-03-28T04:00:02.280Z,82.06
2023-03-28T04:02:36.710Z,81.98
2023-03-28T04:05:12.184Z,81.97
2023-03-28T04:07:47.278Z,81.98
2023-03-28T04:10:22.621Z,82.06
2023-03-28T04:12:56.333Z,82.14
2023-03-28T04:15:30.146Z,82.19
2023-03-28T04:18:08.271Z,82.20
2023-03-28T04:20:43.573Z,82.22
2023-03-28T04:23:18.662Z,82.18
2023-03-28T04:25:54.182Z,82.11
2023-03-28T04:28:29.508Z,82.07
2023-03-28T04:31:04.635Z,82.03
2023-03-28T04:33:48.580Z,82.06
2023-03-28T04:36:25.171Z,82.08
2023-03-28T04:39:01.873Z,82.06
2023-03-28T04:41:53.770Z,82.05
2023-03-28T04:44:29.421Z,82.11
2023-03-28T04:47:04.531Z,82.14
2023-03-28T04:49:38.044Z,82.13
2023-03-28T04:52:11.820Z,82.13
2023-03-28T04:54:47.015Z,82.14
2023-03-28T04:57:22.399Z,82.10
2023-03-28T04:59:58.043Z,82.12
2023-03-28T05:02:34.913Z,82.15
2023-03-28T05:05:11.212Z,82.17
2023-03-28T05:07:45.267Z,82.30
2023-03-28T05:10:20.174Z,82.32
2023-03-28T05:12:54.205Z,82.45
2023-03-28T05:15:29.036Z,82.51
2023-03-28T05:18:08.691Z,82.56
2023-03-28T05:20:42.190Z,82.59
2023-03-28T05:23:15.943Z,82.66
2023-03-28T05:25:53.742Z,82.69
2023-03-28T05:28:29.252Z,82.74
2023-03-28T05:31:02.497Z,82.84
2023-03-28T05:33:37.788Z,82.89
2023-03-28T05:36:13.116Z,82.91
2023-03-28T05:38:47.673Z,82.87
2023-03-28T05:41:22.329Z,82.89
2023-03-28T05:43:55.619Z,82.78
2023-03-28T05:46:30.799Z,82.77
2023-03-28T05:49:04.330Z,82.70
2023-03-28T05:51:37.600Z,82.68
2023-03-28T05:54:11.228Z,82.73
2023-03-28T05:56:44.699Z,82.58
2023-03-28T05:59:18.405Z,82.59
2023-03-28T06:01:52.775Z,82.50
2023-03-28T06:04:26.371Z,82.55
2023-03-28T06:07:03.066Z,82.29
2023-03-28T06:09:36.897Z,82.35
2023-03-28T06:12:10.791Z,82.28
2023-03-28T06:14:45.914Z,82.07
2023-03-28T06:17:21.193Z,81.90
2023-03-28T06:19:56.428Z,81.86
2023-03-28T06:22:29.977Z,81.71
2023-03-28T06:25:08.786Z,81.56
2023-03-28T06:27:42.464Z,81.25
2023-03-28T06:30:17.644Z,81.16
2023-03-28T06:32:52.965Z,80.91
2023-03-28T06:35:26.777Z,80.23
2023-03-28T06:38:00.640Z,79.04
2023-03-28T06:40:34.399Z,78.19
2023-03-28T06:43:08.154Z,77.65
2023-03-28T06:45:47.207Z,76.11
2023-03-28T06:48:21.403Z,75.62
2023-03-28T06:51:02.632Z,74.08
2023-03-28T06:53:36.555Z,72.16
2023-03-28T06:56:11.753Z,69.86
2023-03-28T06:58:45.414Z,67.50
2023-03-28T07:01:20.325Z,65.47
2023-03-28T07:03:57.878Z,63.49
2023-03-28T07:06:32.088Z,61.59
2023-03-28T07:09:06.593Z,59.04
2023-03-28T07:11:48.215Z,56.53
2023-03-28T07:14:23.260Z,55.17
2023-03-28T07:16:57.393Z,52.59
2023-03-28T07:19:31.817Z,50.95
2023-03-28T07:22:05.736Z,52.25
2023-03-28T07:24:40.947Z,51.99
2023-03-28T07:27:17.198Z,52.09
2023-03-28T07:29:51.265Z,52.20
2023-03-28T07:32:27.535Z,52.07
2023-03-28T07:35:00.490Z,51.92
2023-03-28T07:37:36.206Z,51.74
2023-03-28T07:40:16.530Z,52.25
2023-03-28T07:42:51.081Z,53.22
2023-03-28T07:45:24.684Z,52.80
2023-03-28T07:47:58.537Z,52.29
2023-03-28T07:50:32.761Z,50.35
2023-03-28T07:53:06.360Z,49.20
2023-03-28T07:55:54.240Z,49.38
2023-03-28T07:58:17.766Z,48.86
2023-03-28T08:00:52.125Z,49.08
2023-03-28T08:03:36.605Z,51.21
2023-03-28T08:06:28.609Z,52.95
2023-03-28T08:08:50.460Z,53.26
2023-03-28T08:11:25.663Z,55.48
2023-03-28T08:14:00.059Z,56.45
2023-03-28T08:16:35.856Z,56.87
2023-03-28T08:19:11.776Z,56.39
2023-03-28T08:22:02.841Z,56.33
2023-03-28T08:24:37.977Z,56.00
2023-03-28T08:27:16.401Z,56.54
2023-03-28T08:29:51.853Z,56.28
2023-03-28T08:32:25.529Z,56.22
2023-03-28T08:35:01.718Z,54.21
2023-03-28T08:37:35.598Z,55.55
2023-03-28T08:40:16.432Z,54.34
2023-03-28T08:43:06.101Z,54.51
2023-03-28T08:45:46.753Z,54.75
2023-03-28T08:48:25.749Z,54.24
2023-03-28T08:51:05.740Z,54.16
2023-03-28T08:53:44.308Z,52.45
2023-03-28T08:56:19.150Z,54.49
2023-03-28T08:58:57.221Z,54.75
2023-03-28T09:01:33.059Z,54.01
2023-03-28T09:04:07.660Z,52.81
2023-03-28T09:06:45.277Z,50.02
2023-03-28T09:09:39.311Z,47.98
2023-03-28T09:12:26.864Z,47.40
2023-03-28T09:15:18.795Z,47.99
2023-03-28T09:18:00.527Z,48.54
2023-03-28T09:20:37.969Z,47.83
2023-03-28T09:23:22.337Z,46.78
2023-03-28T09:26:03.145Z,47.14
2023-03-28T09:28:41.952Z,47.99
2023-03-28T09:31:18.377Z,48.02
2023-03-28T09:33:54.306Z,47.58
2023-03-28T09:36:45.651Z,43.42
2023-03-28T09:39:12.297Z,42.05
2023-03-28T09:41:48.997Z,42.44
2023-03-28T09:47:20.297Z,43.56
2023-03-28T09:50:05.622Z,41.95
2023-03-28T09:52:32.191Z,41.89
2023-03-28T09:55:06.266Z,39.97
2023-03-28T09:58:01.347Z,36.21
2023-03-28T10:00:39.969Z,35.33
2023-03-28T10:03:25.903Z,37.45
2023-03-28T10:06:01.176Z,38.36
2023-03-28T10:08:41.905Z,36.98
2023-03-28T10:11:29.519Z,35.96
2023-03-28T10:14:05.051Z,35.93
2023-03-28T10:16:38.732Z,35.87
2023-03-28T10:19:27.395Z,35.92
2023-03-28T10:22:08.813Z,37.96
2023-03-28T10:24:45.936Z,38.99
2023-03-28T10:27:24.290Z,38.19
2023-03-28T10:30:00.088Z,38.84
2023-03-28T10:32:36.372Z,41.25
2023-03-28T10:35:21.406Z,37.65
2023-03-28T10:37:58.652Z,36.71
2023-03-28T10:40:34.759Z,36.85
2023-03-28T10:43:32.815Z,37.63
2023-03-28T10:46:20.265Z,38.84
2023-03-28T10:49:16.413Z,40.03
2023-03-28T10:51:51.597Z,38.78
2023-03-28T10:54:45.430Z,34.86
2023-03-28T10:57:23.536Z,32.16
2023-03-28T11:00:02.249Z,31.81
2023-03-28T11:03:02.715Z,33.06
2023-03-28T11:05:55.009Z,32.72
2023-03-28T11:11:26.127Z,32.96
2023-03-28T11:14:03.429Z,33.67
2023-03-28T11:16:43.895Z,35.44
2023-03-28T11:19:28.379Z,33.72
2023-03-28T11:22:05.901Z,34.27
2023-03-28T11:24:43.784Z,33.82
2023-03-28T11:27:24.858Z,31.18
2023-03-28T11:30:03.309Z,29.47
2023-03-28T11:32:38.227Z,28.59
2023-03-28T11:35:17.564Z,35.14
2023-03-28T11:37:54.067Z,31.55
2023-03-28T11:40:30.879Z,30.64
2023-03-28T11:43:10.633Z,32.08
2023-03-28T11:45:52.669Z,31.44
2023-03-28T11:48:28.578Z,32.57
2023-03-28T11:51:07.778Z,33.23
2023-03-28T11:53:58.808Z,33.05
2023-03-28T11:56:42.603Z,31.26
2023-03-28T11:59:22.981Z,30.08
2023-03-28T12:02:00.319Z,28.49
2023-03-28T12:04:37.132Z,29.09
2023-03-28T12:07:15.929Z,29.29
2023-03-28T12:10:04.624Z,28.47
2023-03-28T12:12:42.413Z,28.45
2023-03-28T12:15:19.389Z,29.90
2023-03-28T12:18:03.458Z,30.35
2023-03-28T12:20:38.889Z,30.68
2023-03-28T12:23:20.635Z,34.13
2023-03-28T12:26:19.323Z,30.56
2023-03-28T12:28:57.078Z,29.43
2023-03-28T12:31:33.854Z,29.36
2023-03-28T12:34:12.340Z,27.79
2023-03-28T12:36:56.390Z,28.80
2023-03-28T12:39:35.625Z,30.91
2023-03-28T12:42:13.866Z,30.78
2023-03-28T12:44:50.514Z,30.61
2023-03-28T12:47:27.401Z,31.07
2023-03-28T12:50:03.889Z,30.49
2023-03-28T12:52:42.208Z,28.84
2023-03-28T12:55:45.926Z,28.67
2023-03-28T12:58:28.789Z,30.02
2023-03-28T13:01:33.850Z,30.26
2023-03-28T13:04:26.360Z,30.50
2023-03-28T13:07:06.740Z,30.90
2023-03-28T13:09:55.520Z,30.73
2023-03-28T13:12:41.333Z,30.45
2023-03-28T13:15:33.581Z,31.65
2023-03-28T13:21:46.420Z,36.00
2023-03-28T13:24:33.694Z,36.06
2023-03-28T13:27:10.606Z,34.63
2023-03-28T13:29:49.350Z,33.27
2023-03-28T13:32:25.206Z,33.80
2023-03-28T13:35:01.868Z,33.10
2023-03-28T13:37:49.206Z,32.28
2023-03-28T13:40:45.600Z,33.36
2023-03-28T13:43:31.724Z,33.96
2023-03-28T13:46:08.785Z,35.07
2023-03-28T13:48:47.659Z,36.26
2023-03-28T13:51:24.234Z,36.80
2023-03-28T13:53:57.987Z,36.52
2023-03-28T13:56:34.221Z,35.34
2023-03-28T13:59:13.100Z,34.62
2023-03-28T14:01:51.000Z,34.35
2023-03-28T14:04:27.233Z,33.57
2023-03-28T14:07:01.401Z,33.60
2023-03-28T14:09:36.743Z,33.84
2023-03-28T14:12:14.112Z,33.13
2023-03-28T14:14:51.246Z,32.83
2023-03-28T14:17:27.346Z,35.32
2023-03-28T14:20:05.025Z,35.51
2023-03-28T14:22:45.735Z,34.30
2023-03-28T14:25:16.504Z,35.40
2023-03-28T14:27:51.451Z,36.58
2023-03-28T14:30:26.610Z,36.69
2023-03-28T14:33:02.317Z,36.60
2023-03-28T14:35:37.655Z,36.83
2023-03-28T14:38:14.685Z,36.90
2023-03-28T14:40:48.578Z,37.20
2023-03-28T14:43:25.186Z,37.17
2023-03-28T14:46:02.599Z,37.01
2023-03-28T14:48:38.281Z,37.41
2023-03-28T14:51:16.987Z,37.66
2023-03-28T14:53:51.254Z,38.30
2023-03-28T14:56:28.351Z,38.30
2023-03-28T14:59:04.448Z,38.96
2023-03-28T15:01:38.451Z,38.73
2023-03-28T15:04:14.261Z,38.31
2023-03-28T15:06:56.435Z,38.39
2023-03-28T15:09:33.234Z,38.93
2023-03-28T15:12:09.296Z,39.38
2023-03-28T15:14:44.496Z,39.47
2023-03-28T15:17:21.463Z,40.26
2023-03-28T15:19:58.601Z,40.40
2023-03-28T15:22:33.530Z,40.84
2023-03-28T15:25:09.078Z,41.59
2023-03-28T15:27:46.356Z,41.94
2023-03-28T15:30:21.912Z,42.66
2023-03-28T15:32:57.441Z,42.95
2023-03-28T15:35:33.958Z,43.16
2023-03-28T15:38:11.879Z,43.70
2023-03-28T15:40:45.190Z,44.72
2023-03-28T15:43:41.362Z,44.80
2023-03-28T15:46:16.514Z,46.17
2023-03-28T15:48:50.494Z,46.32
2023-03-28T15:51:24.159Z,46.30
2023-03-28T15:54:00.187Z,46.26
2023-03-28T15:56:36.415Z,46.07
2023-03-28T15:59:16.114Z,46.36
2023-03-28T16:01:49.798Z,46.57
2023-03-28T16:04:28.892Z,47.32
2023-03-28T16:07:12.683Z,47.65
2023-03-28T16:09:46.915Z,47.68
2023-03-28T16:12:21.028Z,47.70
2023-03-28T16:15:06.248Z,47.52
2023-03-28T16:17:50.729Z,47.30
2023-03-28T16:20:26.307Z,47.11
2023-03-28T16:23:01.713Z,47.18
2023-03-28T16:25:35.658Z,47.07
2023-03-28T16:28:09.303Z,47.06
2023-03-28T16:30:43.272Z,47.01
2023-03-28T16:33:19.791Z,47.02
2023-03-28T16:35:53.271Z,47.38
2023-03-28T16:38:26.756Z,48.36
2023-03-28T16:41:00.032Z,49.22
2023-03-28T16:43:33.596Z,49.12
2023-03-28T16:46:08.821Z,48.63
2023-03-28T16:48:43.037Z,48.61
2023-03-28T16:51:16.703Z,49.23
2023-03-28T16:53:50.230Z,49.91
2023-03-28T16:56:27.251Z,50.12
2023-03-28T16:59:00.664Z,50.50
2023-03-28T17:01:34.429Z,51.47
2023-03-28T17:04:08.717Z,51.99
2023-03-28T17:06:43.013Z,52.79
2023-03-28T17:09:16.511Z,52.78
2023-03-28T17:11:50.142Z,53.36
2023-03-28T17:14:23.654Z,54.32
2023-03-28T17:16:57.093Z,54.45
2023-03-28T17:19:30.936Z,54.53
2023-03-28T17:22:04.729Z,54.59
2023-03-28T17:24:38.412Z,54.74
2023-03-28T17:27:15.508Z,55.05
2023-03-28T17:29:49.245Z,55.51
2023-03-28T17:32:22.967Z,55.65
2023-03-28T17:34:56.620Z,55.95
2023-03-28T17:37:30.345Z,55.88
2023-03-28T17:40:04.280Z,56.26
2023-03-28T17:42:37.260Z,56.29
2023-03-28T17:45:12.461Z,57.14
2023-03-28T17:47:45.841Z,57.03
2023-03-28T17:50:19.369Z,56.47
2023-03-28T17:52:55.365Z,57.53
2023-03-28T17:55:29.085Z,57.59
2023-03-28T17:58:02.850Z,57.55
2023-03-28T18:00:36.275Z,58.05
2023-03-28T18:03:09.855Z,57.88
2023-03-28T18:05:46.592Z,58.52
2023-03-28T18:08:19.919Z,58.46
2023-03-28T18:10:53.481Z,57.94
2023-03-28T18:13:27.043Z,58.28
2023-03-28T18:16:01.427Z,58.80
2023-03-28T18:18:36.232Z,58.75
2023-03-28T18:21:11.536Z,58.13
2023-03-28T18:23:44.751Z,58.75
2023-03-28T18:26:18.490Z,58.83
2023-03-28T18:28:51.961Z,58.79
2023-03-28T18:31:28.470Z,59.20
2023-03-28T18:34:03.630Z,59.24
2023-03-28T18:36:39.562Z,59.66
2023-03-28T18:39:13.509Z,59.60
2023-03-28T18:41:46.910Z,60.23
2023-03-28T18:44:20.862Z,60.59
2023-03-28T18:46:55.635Z,60.58
2023-03-28T18:49:29.090Z,60.65
2023-03-28T18:52:04.927Z,61.14
2023-03-28T18:54:38.573Z,61.23
2023-03-28T18:57:12.253Z,61.04
2023-03-28T18:59:58.691Z,61.01
2023-03-28T19:02:46.107Z,60.82
2023-03-28T19:05:20.253Z,60.67
2023-03-28T19:07:53.782Z,60.52
2023-03-28T19:10:27.291Z,59.84
2023-03-28T19:13:00.648Z,59.26
2023-03-28T19:15:34.092Z,59.74
2023-03-28T19:18:08.195Z,59.55
2023-03-28T19:20:42.842Z,59.63
2023-03-28T19:23:16.623Z,59.55
2023-03-28T19:25:50.671Z,59.29
2023-03-28T19:28:26.570Z,58.94
2023-03-28T19:31:01.532Z,59.04
2023-03-28T19:33:35.372Z,59.81
2023-03-28T19:36:12.823Z,59.19
2023-03-28T19:38:46.354Z,58.81
2023-03-28T19:41:22.278Z,58.38
2023-03-28T19:43:56.288Z,58.36
2023-03-28T19:46:35.416Z,58.66
2023-03-28T19:49:09.106Z,58.70
2023-03-28T19:51:42.593Z,58.86
2023-03-28T19:54:16.690Z,59.71
2023-03-28T19:56:50.286Z,60.25
2023-03-28T19:59:24.866Z,60.89
2023-03-28T20:01:58.515Z,60.62
2023-03-28T20:04:32.045Z,60.95
2023-03-28T20:07:05.771Z,60.65
2023-03-28T20:09:40.823Z,60.91
2023-03-28T20:12:14.343Z,61.06
2023-03-28T20:14:48.072Z,60.96
2023-03-28T20:17:21.589Z,61.02
2023-03-28T20:19:55.164Z,60.96
2023-03-28T20:22:33.477Z,61.18
2023-03-28T20:25:11.816Z,61.76
2023-03-28T20:27:50.648Z,61.88
2023-03-28T20:30:29.027Z,61.81
2023-03-28T20:33:05.083Z,62.14
2023-03-28T20:35:42.665Z,61.74
2023-03-28T20:38:16.696Z,62.32
2023-03-28T20:40:51.875Z,62.39
2023-03-28T20:43:28.418Z,63.10
2023-03-28T20:46:03.229Z,62.93
2023-03-28T20:48:40.279Z,62.75
2023-03-28T20:51:24.539Z,63.08
2023-03-28T20:54:03.789Z,62.85
2023-03-28T20:56:37.656Z,63.13
2023-03-28T20:59:12.891Z,63.19
2023-03-28T21:01:50.173Z,63.48
2023-03-28T21:04:25.884Z,63.68
2023-03-28T21:07:02.903Z,64.11
2023-03-28T21:09:42.278Z,63.81
2023-03-28T21:12:18.358Z,63.91
2023-03-28T21:14:52.622Z,64.08
2023-03-28T21:17:29.199Z,64.15
2023-03-28T21:20:05.355Z,64.22
2023-03-28T21:22:38.608Z,64.15
2023-03-28T21:25:14.307Z,64.24
2023-03-28T21:27:48.520Z,64.53
2023-03-28T21:30:22.422Z,64.59
2023-03-28T21:33:03.103Z,64.56
2023-03-28T21:35:40.269Z,64.84
2023-03-28T21:38:16.296Z,64.70
2023-03-28T21:40:55.364Z,64.90
2023-03-28T21:43:33.910Z,64.94
2023-03-28T21:46:14.226Z,64.84
2023-03-28T21:48:52.617Z,65.25
2023-03-28T21:51:30.306Z,64.94
2023-03-28T21:54:06.780Z,64.62
2023-03-28T21:56:39.927Z,64.49
2023-03-28T21:59:13.135Z,65.06
2023-03-28T22:01:46.135Z,65.18
2023-03-28T22:04:19.441Z,64.95
2023-03-28T22:06:53.394Z,65.25
2023-03-28T22:09:28.178Z,65.17
2023-03-28T22:12:02.877Z,65.62
2023-03-28T22:14:36.488Z,66.07
2023-03-28T22:17:09.946Z,65.90
2023-03-28T22:19:43.861Z,66.14
2023-03-28T22:22:17.874Z,66.41
2023-03-28T22:24:51.315Z,66.22
2023-03-28T22:27:24.510Z,66.18
2023-03-28T22:29:57.860Z,66.30
2023-03-28T22:32:31.021Z,66.66
2023-03-28T22:35:04.668Z,67.13
2023-03-28T22:37:37.634Z,67.00
2023-03-28T22:40:13.104Z,66.91
2023-03-28T22:42:47.011Z,66.83
2023-03-28T22:45:20.356Z,66.58
2023-03-28T22:47:54.565Z,66.42
2023-03-28T22:50:28.625Z,67.00
2023-03-28T22:53:04.502Z,67.20
2023-03-28T22:55:38.304Z,66.95
2023-03-28T22:58:11.879Z,67.12
2023-03-28T23:00:46.429Z,67.44
2023-03-28T23:03:19.669Z,66.65
2023-03-28T23:05:54.326Z,66.27
2023-03-28T23:08:28.345Z,65.71
2023-03-28T23:11:01.939Z,65.87
2023-03-28T23:13:35.329Z,66.94
2023-03-28T23:16:10.539Z,67.82
2023-03-28T23:18:44.041Z,68.15
2023-03-28T23:21:17.285Z,68.00
2023-03-28T23:23:50.395Z,67.96
2023-03-28T23:26:23.185Z,68.02
2023-03-28T23:28:56.435Z,68.12
2023-03-28T23:31:29.526Z,68.03
2023-03-28T23:34:02.650Z,67.97
2023-03-28T23:36:36.019Z,68.11
2023-03-28T23:39:11.114Z,67.99
2023-03-28T23:41:44.499Z,68.25
2023-03-28T23:44:17.717Z,68.50
2023-03-28T23:46:50.859Z,68.77
2023-03-28T23:49:23.911Z,68.42
2023-03-28T23:51:57.229Z,68.32
2023-03-28T23:54:30.988Z,68.35
2023-03-28T23:57:05.748Z,68.71
2023-03-28T23:59:38.869Z,68.71
